sensor_id;sensor_type;location;lat;lon;timestamp;P1;durP1;ratioP1;P2;durP2;ratioP2
44145;SDS011;29809;52.432;4.780;2022-11-14T00:02:01;4.53;;;3.70;;
44145;SDS011;29809;52.432;4.780;2022-11-14T00:04:27;3.80;;;3.47;;
44145;SDS011;29809;52.432;4.780;2022-11-14T00:06:52;5.00;;;4.53;;
44145;SDS011;29809;52.432;4.780;2022-11-14T00:09:17;4.20;;;3.80;;
44145;SDS011;29809;52.432;4.780;2022-11-14T00:11:43;3.83;;;3.53;;
44145;SDS011;29809;52.432;4.780;2022-11-14T00:14:08;4.65;;;3.80;;
44145;SDS011;29809;52.432;4.780;2022-11-14T00:16:33;4.50;;;4.10;;
44145;SDS011;29809;52.432;4.780;2022-11-14T00:18:59;3.88;;;3.47;;
44145;SDS011;29809;52.432;4.780;2022-11-14T00:21:24;3.78;;;3.47;;
44145;SDS011;29809;52.432;4.780;2022-11-14T00:23:49;4.10;;;3.78;;
44145;SDS011;29809;52.432;4.780;2022-11-14T00:26:14;4.05;;;3.70;;
44145;SDS011;29809;52.432;4.780;2022-11-14T00:28:40;4.15;;;3.75;;
44145;SDS011;29809;52.432;4.780;2022-11-14T00:31:05;4.80;;;4.25;;
44145;SDS011;29809;52.432;4.780;2022-11-14T00:33:30;4.30;;;3.95;;
44145;SDS011;29809;52.432;4.780;2022-11-14T00:35:55;5.60;;;4.32;;
44145;SDS011;29809;52.432;4.780;2022-11-14T00:38:21;4.45;;;4.07;;
44145;SDS011;29809;52.432;4.780;2022-11-14T00:40:47;4.35;;;3.83;;
44145;SDS011;29809;52.432;4.780;2022-11-14T00:43:12;5.25;;;3.88;;
44145;SDS011;29809;52.432;4.780;2022-11-14T00:45:37;4.57;;;4.13;;
44145;SDS011;29809;52.432;4.780;2022-11-14T00:48:03;5.07;;;4.40;;
44145;SDS011;29809;52.432;4.780;2022-11-14T00:50:28;4.90;;;4.22;;
44145;SDS011;29809;52.432;4.780;2022-11-14T00:52:53;4.50;;;4.10;;
44145;SDS011;29809;52.432;4.780;2022-11-14T00:55:18;4.70;;;4.30;;
44145;SDS011;29809;52.432;4.780;2022-11-14T00:57:43;4.43;;;4.03;;
44145;SDS011;29809;52.432;4.780;2022-11-14T01:00:09;4.75;;;4.35;;
44145;SDS011;29809;52.432;4.780;2022-11-14T01:02:34;4.72;;;4.32;;
44145;SDS011;29809;52.432;4.780;2022-11-14T01:04:59;4.57;;;4.18;;
44145;SDS011;29809;52.432;4.780;2022-11-14T01:07:26;5.00;;;4.50;;
44145;SDS011;29809;52.432;4.780;2022-11-14T01:09:51;5.18;;;4.68;;
44145;SDS011;29809;52.432;4.780;2022-11-14T01:12:16;7.65;;;4.90;;
44145;SDS011;29809;52.432;4.780;2022-11-14T01:14:41;4.85;;;4.45;;
44145;SDS011;29809;52.432;4.780;2022-11-14T01:17:07;5.88;;;5.30;;
44145;SDS011;29809;52.432;4.780;2022-11-14T01:19:32;4.75;;;4.35;;
44145;SDS011;29809;52.432;4.780;2022-11-14T01:21:57;5.32;;;4.82;;
44145;SDS011;29809;52.432;4.780;2022-11-14T01:24:22;5.20;;;4.80;;
44145;SDS011;29809;52.432;4.780;2022-11-14T01:26:48;4.97;;;4.57;;
44145;SDS011;29809;52.432;4.780;2022-11-14T01:29:13;4.88;;;4.47;;
44145;SDS011;29809;52.432;4.780;2022-11-14T01:31:38;5.20;;;4.80;;
44145;SDS011;29809;52.432;4.780;2022-11-14T01:34:03;5.90;;;5.40;;
44145;SDS011;29809;52.432;4.780;2022-11-14T01:36:28;6.25;;;5.63;;
44145;SDS011;29809;52.432;4.780;2022-11-14T01:38:54;5.88;;;5.38;;
44145;SDS011;29809;52.432;4.780;2022-11-14T01:41:19;5.68;;;5.20;;
44145;SDS011;29809;52.432;4.780;2022-11-14T01:43:45;5.70;;;5.20;;
44145;SDS011;29809;52.432;4.780;2022-11-14T01:51:28;6.25;;;5.50;;
44145;SDS011;29809;52.432;4.780;2022-11-14T01:53:54;6.28;;;5.72;;
44145;SDS011;29809;52.432;4.780;2022-11-14T01:56:42;6.45;;;5.95;;
44145;SDS011;29809;52.432;4.780;2022-11-14T01:59:07;6.88;;;6.28;;
44145;SDS011;29809;52.432;4.780;2022-11-14T02:01:33;6.30;;;5.70;;
44145;SDS011;29809;52.432;4.780;2022-11-14T02:03:59;6.97;;;6.38;;
44145;SDS011;29809;52.432;4.780;2022-11-14T02:06:26;6.70;;;5.85;;
44145;SDS011;29809;52.432;4.780;2022-11-14T02:08:52;6.85;;;6.15;;
44145;SDS011;29809;52.432;4.780;2022-11-14T02:11:18;6.97;;;6.38;;
44145;SDS011;29809;52.432;4.780;2022-11-14T02:13:43;7.22;;;6.53;;
44145;SDS011;29809;52.432;4.780;2022-11-14T02:16:09;6.55;;;5.95;;
44145;SDS011;29809;52.432;4.780;2022-11-14T02:18:34;6.35;;;5.85;;
44145;SDS011;29809;52.432;4.780;2022-11-14T02:21:00;6.78;;;6.18;;
44145;SDS011;29809;52.432;4.780;2022-11-14T02:23:26;6.78;;;6.18;;
44145;SDS011;29809;52.432;4.780;2022-11-14T02:25:51;7.88;;;7.13;;
44145;SDS011;29809;52.432;4.780;2022-11-14T02:28:16;7.15;;;6.55;;
44145;SDS011;29809;52.432;4.780;2022-11-14T02:30:44;7.20;;;6.60;;
44145;SDS011;29809;52.432;4.780;2022-11-14T02:33:09;7.85;;;7.15;;
44145;SDS011;29809;52.432;4.780;2022-11-14T02:35:35;8.00;;;7.30;;
44145;SDS011;29809;52.432;4.780;2022-11-14T02:38:00;7.43;;;6.72;;
44145;SDS011;29809;52.432;4.780;2022-11-14T02:40:25;8.65;;;7.75;;
44145;SDS011;29809;52.432;4.780;2022-11-14T02:42:50;7.97;;;7.28;;
44145;SDS011;29809;52.432;4.780;2022-11-14T02:45:15;8.13;;;7.32;;
44145;SDS011;29809;52.432;4.780;2022-11-14T02:47:41;8.23;;;7.38;;
44145;SDS011;29809;52.432;4.780;2022-11-14T02:50:06;7.72;;;7.03;;
44145;SDS011;29809;52.432;4.780;2022-11-14T02:52:31;7.60;;;6.90;;
44145;SDS011;29809;52.432;4.780;2022-11-14T02:54:57;8.05;;;7.30;;
44145;SDS011;29809;52.432;4.780;2022-11-14T02:57:22;7.80;;;7.10;;
44145;SDS011;29809;52.432;4.780;2022-11-14T02:59:47;8.82;;;7.93;;
44145;SDS011;29809;52.432;4.780;2022-11-14T03:02:12;8.77;;;7.97;;
44145;SDS011;29809;52.432;4.780;2022-11-14T03:04:38;8.73;;;7.38;;
44145;SDS011;29809;52.432;4.780;2022-11-14T03:07:03;8.80;;;8.00;;
44145;SDS011;29809;52.432;4.780;2022-11-14T03:09:28;8.90;;;8.10;;
44145;SDS011;29809;52.432;4.780;2022-11-14T03:11:54;8.32;;;7.55;;
44145;SDS011;29809;52.432;4.780;2022-11-14T03:14:19;8.35;;;7.57;;
44145;SDS011;29809;52.432;4.780;2022-11-14T03:16:44;9.50;;;8.65;;
44145;SDS011;29809;52.432;4.780;2022-11-14T03:19:09;9.02;;;8.13;;
44145;SDS011;29809;52.432;4.780;2022-11-14T03:21:35;8.82;;;8.02;;
44145;SDS011;29809;52.432;4.780;2022-11-14T03:24:00;8.95;;;8.05;;
44145;SDS011;29809;52.432;4.780;2022-11-14T03:26:25;10.18;;;9.18;;
44145;SDS011;29809;52.432;4.780;2022-11-14T03:28:50;8.95;;;8.15;;
44145;SDS011;29809;52.432;4.780;2022-11-14T03:31:15;10.07;;;8.57;;
44145;SDS011;29809;52.432;4.780;2022-11-14T03:33:41;10.10;;;9.10;;
44145;SDS011;29809;52.432;4.780;2022-11-14T03:36:06;9.45;;;8.60;;
44145;SDS011;29809;52.432;4.780;2022-11-14T03:38:32;9.95;;;8.95;;
44145;SDS011;29809;52.432;4.780;2022-11-14T03:40:58;9.25;;;8.40;;
44145;SDS011;29809;52.432;4.780;2022-11-14T03:43:23;9.30;;;8.40;;
44145;SDS011;29809;52.432;4.780;2022-11-14T03:45:49;8.98;;;8.07;;
44145;SDS011;29809;52.432;4.780;2022-11-14T03:48:14;9.70;;;8.80;;
44145;SDS011;29809;52.432;4.780;2022-11-14T03:50:40;9.63;;;8.73;;
44145;SDS011;29809;52.432;4.780;2022-11-14T03:53:05;10.00;;;9.00;;
44145;SDS011;29809;52.432;4.780;2022-11-14T03:55:30;9.80;;;8.85;;
44145;SDS011;29809;52.432;4.780;2022-11-14T03:57:56;10.10;;;9.20;;
44145;SDS011;29809;52.432;4.780;2022-11-14T04:00:21;10.75;;;9.65;;
44145;SDS011;29809;52.432;4.780;2022-11-14T04:02:46;10.15;;;9.25;;
44145;SDS011;29809;52.432;4.780;2022-11-14T04:05:12;10.30;;;9.30;;
44145;SDS011;29809;52.432;4.780;2022-11-14T04:07:37;10.38;;;9.30;;
44145;SDS011;29809;52.432;4.780;2022-11-14T04:10:02;10.20;;;9.30;;
44145;SDS011;29809;52.432;4.780;2022-11-14T04:12:28;11.50;;;9.45;;
44145;SDS011;29809;52.432;4.780;2022-11-14T04:14:53;10.57;;;9.57;;
44145;SDS011;29809;52.432;4.780;2022-11-14T04:17:18;9.75;;;8.85;;
44145;SDS011;29809;52.432;4.780;2022-11-14T04:19:43;11.05;;;10.05;;
44145;SDS011;29809;52.432;4.780;2022-11-14T04:22:09;10.63;;;9.63;;
44145;SDS011;29809;52.432;4.780;2022-11-14T04:24:34;10.35;;;8.82;;
44145;SDS011;29809;52.432;4.780;2022-11-14T04:26:59;11.32;;;10.23;;
44145;SDS011;29809;52.432;4.780;2022-11-14T04:29:24;10.15;;;9.10;;
44145;SDS011;29809;52.432;4.780;2022-11-14T04:31:50;12.07;;;10.88;;
44145;SDS011;29809;52.432;4.780;2022-11-14T04:34:15;10.27;;;9.27;;
44145;SDS011;29809;52.432;4.780;2022-11-14T04:36:40;10.55;;;9.52;;
44145;SDS011;29809;52.432;4.780;2022-11-14T04:39:06;11.20;;;9.77;;
44145;SDS011;29809;52.432;4.780;2022-11-14T04:41:31;11.38;;;10.38;;
44145;SDS011;29809;52.432;4.780;2022-11-14T04:43:56;12.50;;;10.77;;
44145;SDS011;29809;52.432;4.780;2022-11-14T04:46:21;11.65;;;10.55;;
44145;SDS011;29809;52.432;4.780;2022-11-14T04:48:46;11.43;;;9.75;;
44145;SDS011;29809;52.432;4.780;2022-11-14T04:51:12;10.50;;;9.50;;
44145;SDS011;29809;52.432;4.780;2022-11-14T04:53:37;10.50;;;9.50;;
44145;SDS011;29809;52.432;4.780;2022-11-14T04:56:02;10.82;;;9.82;;
44145;SDS011;29809;52.432;4.780;2022-11-14T04:58:28;11.25;;;10.15;;
44145;SDS011;29809;52.432;4.780;2022-11-14T05:00:53;11.27;;;10.18;;
44145;SDS011;29809;52.432;4.780;2022-11-14T05:03:18;12.48;;;11.02;;
44145;SDS011;29809;52.432;4.780;2022-11-14T05:05:43;12.63;;;10.25;;
44145;SDS011;29809;52.432;4.780;2022-11-14T05:08:09;10.65;;;9.55;;
44145;SDS011;29809;52.432;4.780;2022-11-14T05:10:34;12.65;;;10.60;;
44145;SDS011;29809;52.432;4.780;2022-11-14T05:12:59;11.30;;;10.23;;
44145;SDS011;29809;52.432;4.780;2022-11-14T05:15:24;11.60;;;10.40;;
44145;SDS011;29809;52.432;4.780;2022-11-14T05:17:50;11.70;;;10.50;;
44145;SDS011;29809;52.432;4.780;2022-11-14T05:20:15;12.68;;;11.48;;
44145;SDS011;29809;52.432;4.780;2022-11-14T05:22:40;10.40;;;9.43;;
44145;SDS011;29809;52.432;4.780;2022-11-14T05:25:06;11.52;;;10.43;;
44145;SDS011;29809;52.432;4.780;2022-11-14T05:27:31;11.20;;;10.10;;
44145;SDS011;29809;52.432;4.780;2022-11-14T05:29:57;11.55;;;10.45;;
44145;SDS011;29809;52.432;4.780;2022-11-14T05:32:22;11.43;;;10.32;;
44145;SDS011;29809;52.432;4.780;2022-11-14T05:34:47;11.55;;;10.35;;
44145;SDS011;29809;52.432;4.780;2022-11-14T05:37:12;11.85;;;10.68;;
44145;SDS011;29809;52.432;4.780;2022-11-14T05:39:38;12.45;;;10.40;;
44145;SDS011;29809;52.432;4.780;2022-11-14T05:42:03;12.05;;;10.85;;
44145;SDS011;29809;52.432;4.780;2022-11-14T05:44:28;11.82;;;10.63;;
44145;SDS011;29809;52.432;4.780;2022-11-14T05:46:54;11.38;;;10.27;;
44145;SDS011;29809;52.432;4.780;2022-11-14T05:49:19;13.48;;;10.30;;
44145;SDS011;29809;52.432;4.780;2022-11-14T05:51:44;12.13;;;10.40;;
44145;SDS011;29809;52.432;4.780;2022-11-14T05:54:09;12.43;;;10.38;;
44145;SDS011;29809;52.432;4.780;2022-11-14T05:56:35;12.82;;;9.10;;
44145;SDS011;29809;52.432;4.780;2022-11-14T05:59:00;11.65;;;10.45;;
44145;SDS011;29809;52.432;4.780;2022-11-14T06:01:25;11.90;;;10.27;;
44145;SDS011;29809;52.432;4.780;2022-11-14T06:03:51;11.38;;;9.82;;
44145;SDS011;29809;52.432;4.780;2022-11-14T06:06:18;12.15;;;10.27;;
44145;SDS011;29809;52.432;4.780;2022-11-14T06:08:44;11.23;;;10.13;;
44145;SDS011;29809;52.432;4.780;2022-11-14T06:11:16;197.82;;;58.15;;
44145;SDS011;29809;52.432;4.780;2022-11-14T06:13:42;109.13;;;36.80;;
44145;SDS011;29809;52.432;4.780;2022-11-14T06:16:09;177.65;;;59.42;;
44145;SDS011;29809;52.432;4.780;2022-11-14T06:18:35;152.38;;;46.83;;
44145;SDS011;29809;52.432;4.780;2022-11-14T06:21:09;116.85;;;43.35;;
44145;SDS011;29809;52.432;4.780;2022-11-14T06:23:36;113.18;;;43.35;;
44145;SDS011;29809;52.432;4.780;2022-11-14T06:26:03;107.80;;;40.92;;
44145;SDS011;29809;52.432;4.780;2022-11-14T06:28:28;101.28;;;39.67;;
44145;SDS011;29809;52.432;4.780;2022-11-14T06:31:00;93.85;;;35.00;;
44145;SDS011;29809;52.432;4.780;2022-11-14T06:33:26;78.03;;;34.92;;
44145;SDS011;29809;52.432;4.780;2022-11-14T06:35:58;69.90;;;31.10;;
44145;SDS011;29809;52.432;4.780;2022-11-14T06:38:24;63.35;;;30.33;;
44145;SDS011;29809;52.432;4.780;2022-11-14T06:40:49;70.43;;;29.02;;
44145;SDS011;29809;52.432;4.780;2022-11-14T06:43:14;67.53;;;29.30;;
44145;SDS011;29809;52.432;4.780;2022-11-14T06:45:39;50.97;;;25.42;;
44145;SDS011;29809;52.432;4.780;2022-11-14T06:48:05;52.67;;;26.95;;
44145;SDS011;29809;52.432;4.780;2022-11-14T06:50:31;47.90;;;25.52;;
44145;SDS011;29809;52.432;4.780;2022-11-14T06:52:56;51.75;;;24.67;;
44145;SDS011;29809;52.432;4.780;2022-11-14T06:55:22;35.95;;;21.45;;
44145;SDS011;29809;52.432;4.780;2022-11-14T06:57:51;38.13;;;22.92;;
44145;SDS011;29809;52.432;4.780;2022-11-14T07:00:16;45.42;;;20.80;;
44145;SDS011;29809;52.432;4.780;2022-11-14T07:02:44;40.22;;;20.13;;
44145;SDS011;29809;52.432;4.780;2022-11-14T07:05:09;37.45;;;19.70;;
44145;SDS011;29809;52.432;4.780;2022-11-14T07:07:34;32.45;;;18.45;;
44145;SDS011;29809;52.432;4.780;2022-11-14T07:09:59;31.48;;;18.17;;
44145;SDS011;29809;52.432;4.780;2022-11-14T07:12:25;29.33;;;17.35;;
44145;SDS011;29809;52.432;4.780;2022-11-14T07:14:50;26.27;;;17.45;;
44145;SDS011;29809;52.432;4.780;2022-11-14T07:17:15;28.45;;;17.55;;
44145;SDS011;29809;52.432;4.780;2022-11-14T07:19:40;27.17;;;16.40;;
44145;SDS011;29809;52.432;4.780;2022-11-14T07:22:06;24.45;;;16.05;;
44145;SDS011;29809;52.432;4.780;2022-11-14T07:24:31;29.77;;;16.23;;
44145;SDS011;29809;52.432;4.780;2022-11-14T07:26:56;25.33;;;17.08;;
44145;SDS011;29809;52.432;4.780;2022-11-14T07:29:21;23.15;;;15.52;;
44145;SDS011;29809;52.432;4.780;2022-11-14T07:31:46;19.25;;;14.93;;
44145;SDS011;29809;52.432;4.780;2022-11-14T07:34:12;23.92;;;15.50;;
44145;SDS011;29809;52.432;4.780;2022-11-14T07:36:37;20.58;;;15.07;;
44145;SDS011;29809;52.432;4.780;2022-11-14T07:39:03;21.42;;;15.27;;
44145;SDS011;29809;52.432;4.780;2022-11-14T07:41:28;19.85;;;14.70;;
44145;SDS011;29809;52.432;4.780;2022-11-14T07:43:53;19.35;;;14.48;;
44145;SDS011;29809;52.432;4.780;2022-11-14T07:46:18;19.95;;;13.95;;
44145;SDS011;29809;52.432;4.780;2022-11-14T07:48:44;21.58;;;13.70;;
44145;SDS011;29809;52.432;4.780;2022-11-14T07:51:13;21.70;;;14.55;;
44145;SDS011;29809;52.432;4.780;2022-11-14T07:53:39;21.55;;;14.40;;
44145;SDS011;29809;52.432;4.780;2022-11-14T07:56:05;19.75;;;13.98;;
44145;SDS011;29809;52.432;4.780;2022-11-14T07:58:31;17.48;;;13.23;;
44145;SDS011;29809;52.432;4.780;2022-11-14T08:01:00;17.80;;;12.93;;
44145;SDS011;29809;52.432;4.780;2022-11-14T08:03:26;20.13;;;13.65;;
44145;SDS011;29809;52.432;4.780;2022-11-14T08:05:51;16.10;;;12.40;;
44145;SDS011;29809;52.432;4.780;2022-11-14T08:08:16;17.05;;;13.15;;
44145;SDS011;29809;52.432;4.780;2022-11-14T08:10:41;15.40;;;12.30;;
44145;SDS011;29809;52.432;4.780;2022-11-14T08:13:09;15.65;;;13.07;;
44145;SDS011;29809;52.432;4.780;2022-11-14T08:15:34;15.40;;;12.10;;
44145;SDS011;29809;52.432;4.780;2022-11-14T08:17:59;16.30;;;12.48;;
44145;SDS011;29809;52.432;4.780;2022-11-14T08:20:25;14.05;;;12.10;;
44145;SDS011;29809;52.432;4.780;2022-11-14T08:22:51;13.80;;;11.50;;
44145;SDS011;29809;52.432;4.780;2022-11-14T08:25:16;13.32;;;11.52;;
44145;SDS011;29809;52.432;4.780;2022-11-14T08:27:42;15.23;;;11.30;;
44145;SDS011;29809;52.432;4.780;2022-11-14T08:30:07;13.55;;;12.05;;
44145;SDS011;29809;52.432;4.780;2022-11-14T08:32:32;13.30;;;11.15;;
44145;SDS011;29809;52.432;4.780;2022-11-14T08:34:58;14.07;;;11.40;;
44145;SDS011;29809;52.432;4.780;2022-11-14T08:37:24;15.27;;;10.48;;
44145;SDS011;29809;52.432;4.780;2022-11-14T08:39:49;15.63;;;11.40;;
44145;SDS011;29809;52.432;4.780;2022-11-14T08:42:14;12.02;;;10.57;;
44145;SDS011;29809;52.432;4.780;2022-11-14T08:44:39;13.52;;;10.85;;
44145;SDS011;29809;52.432;4.780;2022-11-14T08:47:04;13.15;;;11.68;;
44145;SDS011;29809;52.432;4.780;2022-11-14T08:49:30;12.55;;;10.25;;
44145;SDS011;29809;52.432;4.780;2022-11-14T08:51:55;11.52;;;10.27;;
44145;SDS011;29809;52.432;4.780;2022-11-14T08:54:20;13.32;;;10.65;;
44145;SDS011;29809;52.432;4.780;2022-11-14T08:56:46;11.45;;;10.25;;
44145;SDS011;29809;52.432;4.780;2022-11-14T08:59:11;12.70;;;10.18;;
44145;SDS011;29809;52.432;4.780;2022-11-14T09:01:36;11.48;;;10.27;;
44145;SDS011;29809;52.432;4.780;2022-11-14T09:04:01;10.73;;;9.63;;
44145;SDS011;29809;52.432;4.780;2022-11-14T09:06:27;13.48;;;10.40;;
44145;SDS011;29809;52.432;4.780;2022-11-14T09:08:52;11.52;;;10.20;;
44145;SDS011;29809;52.432;4.780;2022-11-14T09:11:17;10.40;;;9.40;;
44145;SDS011;29809;52.432;4.780;2022-11-14T09:13:43;11.80;;;10.05;;
44145;SDS011;29809;52.432;4.780;2022-11-14T09:16:08;12.00;;;10.30;;
44145;SDS011;29809;52.432;4.780;2022-11-14T09:18:33;10.73;;;9.63;;
44145;SDS011;29809;52.432;4.780;2022-11-14T09:20:59;11.18;;;9.98;;
44145;SDS011;29809;52.432;4.780;2022-11-14T09:23:25;13.20;;;10.02;;
44145;SDS011;29809;52.432;4.780;2022-11-14T09:25:50;10.40;;;8.90;;
44145;SDS011;29809;52.432;4.780;2022-11-14T09:28:15;10.25;;;9.18;;
44145;SDS011;29809;52.432;4.780;2022-11-14T09:30:40;10.82;;;9.20;;
44145;SDS011;29809;52.432;4.780;2022-11-14T09:33:06;10.60;;;8.60;;
44145;SDS011;29809;52.432;4.780;2022-11-14T09:35:32;9.85;;;8.85;;
44145;SDS011;29809;52.432;4.780;2022-11-14T09:38:01;10.10;;;9.05;;
44145;SDS011;29809;52.432;4.780;2022-11-14T09:40:27;10.07;;;8.82;;
44145;SDS011;29809;52.432;4.780;2022-11-14T09:43:02;12.13;;;8.90;;
44145;SDS011;29809;52.432;4.780;2022-11-14T09:45:30;11.55;;;8.95;;
44145;SDS011;29809;52.432;4.780;2022-11-14T09:48:15;10.65;;;8.88;;
44145;SDS011;29809;52.432;4.780;2022-11-14T09:50:43;10.35;;;9.25;;
44145;SDS011;29809;52.432;4.780;2022-11-14T09:53:15;9.82;;;8.65;;
44145;SDS011;29809;52.432;4.780;2022-11-14T09:55:44;9.43;;;8.45;;
44145;SDS011;29809;52.432;4.780;2022-11-14T09:58:10;9.88;;;7.97;;
44145;SDS011;29809;52.432;4.780;2022-11-14T10:00:53;19.25;;;9.02;;
44145;SDS011;29809;52.432;4.780;2022-11-14T10:10:58;7.90;;;6.95;;
44145;SDS011;29809;52.432;4.780;2022-11-14T10:21:23;9.00;;;7.80;;
44145;SDS011;29809;52.432;4.780;2022-11-14T10:23:54;9.02;;;7.43;;
44145;SDS011;29809;52.432;4.780;2022-11-14T10:26:27;9.57;;;7.93;;
44145;SDS011;29809;52.432;4.780;2022-11-14T10:34:06;7.93;;;7.05;;
44145;SDS011;29809;52.432;4.780;2022-11-14T10:39:21;8.15;;;7.18;;
44145;SDS011;29809;52.432;4.780;2022-11-14T10:41:48;9.30;;;8.18;;
44145;SDS011;29809;52.432;4.780;2022-11-14T10:44:17;8.18;;;6.93;;
44145;SDS011;29809;52.432;4.780;2022-11-14T10:46:46;8.55;;;7.63;;
44145;SDS011;29809;52.432;4.780;2022-11-14T10:49:18;8.18;;;7.35;;
44145;SDS011;29809;52.432;4.780;2022-11-14T10:51:51;8.50;;;7.60;;
44145;SDS011;29809;52.432;4.780;2022-11-14T10:54:22;8.55;;;7.63;;
44145;SDS011;29809;52.432;4.780;2022-11-14T10:56:50;8.32;;;7.32;;
44145;SDS011;29809;52.432;4.780;2022-11-14T10:59:16;7.63;;;6.82;;
44145;SDS011;29809;52.432;4.780;2022-11-14T11:01:42;7.68;;;6.97;;
44145;SDS011;29809;52.432;4.780;2022-11-14T11:06:45;8.77;;;7.93;;
44145;SDS011;29809;52.432;4.780;2022-11-14T11:12:04;9.30;;;8.40;;
44145;SDS011;29809;52.432;4.780;2022-11-14T11:14:30;8.27;;;7.47;;
44145;SDS011;29809;52.432;4.780;2022-11-14T11:19:36;8.88;;;7.93;;
44145;SDS011;29809;52.432;4.780;2022-11-14T11:22:01;8.45;;;7.65;;
44145;SDS011;29809;52.432;4.780;2022-11-14T11:24:31;7.63;;;6.93;;
44145;SDS011;29809;52.432;4.780;2022-11-14T11:27:11;8.88;;;7.43;;
44145;SDS011;29809;52.432;4.780;2022-11-14T11:29:36;8.25;;;7.28;;
44145;SDS011;29809;52.432;4.780;2022-11-14T11:32:02;8.50;;;7.63;;
44145;SDS011;29809;52.432;4.780;2022-11-14T11:34:29;7.80;;;7.10;;
44145;SDS011;29809;52.432;4.780;2022-11-14T11:36:58;12.63;;;7.47;;
44145;SDS011;29809;52.432;4.780;2022-11-14T11:39:27;8.45;;;7.55;;
44145;SDS011;29809;52.432;4.780;2022-11-14T11:41:53;8.07;;;7.38;;
44145;SDS011;29809;52.432;4.780;2022-11-14T11:44:19;8.10;;;7.28;;
44145;SDS011;29809;52.432;4.780;2022-11-14T11:51:50;8.88;;;6.95;;
44145;SDS011;29809;52.432;4.780;2022-11-14T11:54:29;7.53;;;6.82;;
44145;SDS011;29809;52.432;4.780;2022-11-14T11:56:58;8.40;;;7.57;;
44145;SDS011;29809;52.432;4.780;2022-11-14T11:59:29;6.93;;;6.22;;
44145;SDS011;29809;52.432;4.780;2022-11-14T12:02:00;7.47;;;6.78;;
44145;SDS011;29809;52.432;4.780;2022-11-14T12:04:26;8.25;;;7.22;;
44145;SDS011;29809;52.432;4.780;2022-11-14T12:06:59;8.10;;;7.05;;
44145;SDS011;29809;52.432;4.780;2022-11-14T12:09:35;8.18;;;7.38;;
44145;SDS011;29809;52.432;4.780;2022-11-14T12:12:03;7.38;;;6.55;;
44145;SDS011;29809;52.432;4.780;2022-11-14T12:17:11;6.70;;;6.10;;
44145;SDS011;29809;52.432;4.780;2022-11-14T12:27:28;6.65;;;5.85;;
44145;SDS011;29809;52.432;4.780;2022-11-14T12:32:31;7.32;;;6.50;;
44145;SDS011;29809;52.432;4.780;2022-11-14T12:34:57;6.55;;;5.95;;
44145;SDS011;29809;52.432;4.780;2022-11-14T12:37:36;6.55;;;5.72;;
44145;SDS011;29809;52.432;4.780;2022-11-14T12:40:07;6.05;;;5.45;;
44145;SDS011;29809;52.432;4.780;2022-11-14T12:42:45;7.57;;;6.00;;
44145;SDS011;29809;52.432;4.780;2022-11-14T12:50:45;7.15;;;6.35;;
44145;SDS011;29809;52.432;4.780;2022-11-14T12:58:53;6.53;;;5.82;;
44145;SDS011;29809;52.432;4.780;2022-11-14T13:01:29;6.10;;;5.47;;
44145;SDS011;29809;52.432;4.780;2022-11-14T13:09:10;6.00;;;5.50;;
44145;SDS011;29809;52.432;4.780;2022-11-14T13:11:39;5.82;;;5.22;;
44145;SDS011;29809;52.432;4.780;2022-11-14T13:14:24;6.03;;;5.13;;
44145;SDS011;29809;52.432;4.780;2022-11-14T13:19:58;5.82;;;5.22;;
44145;SDS011;29809;52.432;4.780;2022-11-14T13:22:43;5.72;;;5.05;;
44145;SDS011;29809;52.432;4.780;2022-11-14T13:27:37;5.32;;;4.82;;
44145;SDS011;29809;52.432;4.780;2022-11-14T13:30:02;5.63;;;5.07;;
44145;SDS011;29809;52.432;4.780;2022-11-14T13:32:53;5.72;;;5.22;;
44145;SDS011;29809;52.432;4.780;2022-11-14T13:35:24;6.35;;;5.65;;
44145;SDS011;29809;52.432;4.780;2022-11-14T13:43:04;5.63;;;5.13;;
44145;SDS011;29809;52.432;4.780;2022-11-14T13:50:50;6.63;;;5.60;;
44145;SDS011;29809;52.432;4.780;2022-11-14T13:53:17;5.43;;;4.93;;
44145;SDS011;29809;52.432;4.780;2022-11-14T14:03:45;5.22;;;4.80;;
44145;SDS011;29809;52.432;4.780;2022-11-14T14:06:16;5.85;;;5.25;;
44145;SDS011;29809;52.432;4.780;2022-11-14T14:11:34;5.47;;;4.97;;
44145;SDS011;29809;52.432;4.780;2022-11-14T14:21:43;5.50;;;5.03;;
44145;SDS011;29809;52.432;4.780;2022-11-14T14:24:16;4.85;;;4.25;;
44145;SDS011;29809;52.432;4.780;2022-11-14T14:27:04;5.78;;;5.28;;
44145;SDS011;29809;52.432;4.780;2022-11-14T14:32:11;5.03;;;4.63;;
44145;SDS011;29809;52.432;4.780;2022-11-14T14:34:36;4.88;;;4.47;;
44145;SDS011;29809;52.432;4.780;2022-11-14T14:37:12;5.50;;;5.00;;
44145;SDS011;29809;52.432;4.780;2022-11-14T14:39:38;7.35;;;5.07;;
44145;SDS011;29809;52.432;4.780;2022-11-14T14:42:08;4.78;;;4.22;;
44145;SDS011;29809;52.432;4.780;2022-11-14T14:44:37;5.22;;;4.72;;
44145;SDS011;29809;52.432;4.780;2022-11-14T14:49:54;5.00;;;4.50;;
44145;SDS011;29809;52.432;4.780;2022-11-14T14:54:52;5.15;;;4.65;;
44145;SDS011;29809;52.432;4.780;2022-11-14T14:57:17;5.05;;;4.60;;
44145;SDS011;29809;52.432;4.780;2022-11-14T14:59:43;4.82;;;4.43;;
44145;SDS011;29809;52.432;4.780;2022-11-14T15:02:17;5.40;;;4.90;;
44145;SDS011;29809;52.432;4.780;2022-11-14T15:04:44;5.53;;;5.03;;
44145;SDS011;29809;52.432;4.780;2022-11-14T15:07:17;5.45;;;4.82;;
44145;SDS011;29809;52.432;4.780;2022-11-14T15:09:53;5.18;;;4.75;;
44145;SDS011;29809;52.432;4.780;2022-11-14T15:12:18;6.10;;;5.60;;
44145;SDS011;29809;52.432;4.780;2022-11-14T15:14:44;5.53;;;5.03;;
44145;SDS011;29809;52.432;4.780;2022-11-14T15:17:09;5.50;;;4.78;;
44145;SDS011;29809;52.432;4.780;2022-11-14T15:19:38;7.05;;;5.72;;
44145;SDS011;29809;52.432;4.780;2022-11-14T15:22:17;6.00;;;5.40;;
44145;SDS011;29809;52.432;4.780;2022-11-14T15:25:02;6.28;;;5.65;;
44145;SDS011;29809;52.432;4.780;2022-11-14T15:27:27;6.57;;;5.97;;
44145;SDS011;29809;52.432;4.780;2022-11-14T15:29:52;6.28;;;5.68;;
44145;SDS011;29809;52.432;4.780;2022-11-14T15:32:22;7.40;;;6.75;;
44145;SDS011;29809;52.432;4.780;2022-11-14T15:37:58;7.10;;;6.40;;
44145;SDS011;29809;52.432;4.780;2022-11-14T15:40:23;7.35;;;6.65;;
44145;SDS011;29809;52.432;4.780;2022-11-14T15:42:49;8.30;;;7.55;;
44145;SDS011;29809;52.432;4.780;2022-11-14T15:45:24;7.80;;;7.10;;
44145;SDS011;29809;52.432;4.780;2022-11-14T15:48:00;7.90;;;7.05;;
44145;SDS011;29809;52.432;4.780;2022-11-14T15:50:32;10.02;;;8.20;;
44145;SDS011;29809;52.432;4.780;2022-11-14T15:52:59;9.25;;;8.23;;
44145;SDS011;29809;52.432;4.780;2022-11-14T15:55:25;8.43;;;7.63;;
44145;SDS011;29809;52.432;4.780;2022-11-14T15:57:50;8.50;;;7.55;;
44145;SDS011;29809;52.432;4.780;2022-11-14T16:00:16;8.70;;;7.55;;
44145;SDS011;29809;52.432;4.780;2022-11-14T16:03:15;10.25;;;8.82;;
44145;SDS011;29809;52.432;4.780;2022-11-14T16:05:32;10.25;;;9.07;;
44145;SDS011;29809;52.432;4.780;2022-11-14T16:07:58;11.02;;;8.50;;
44145;SDS011;29809;52.432;4.780;2022-11-14T16:10:24;9.32;;;8.43;;
44145;SDS011;29809;52.432;4.780;2022-11-14T16:12:49;9.23;;;8.32;;
44145;SDS011;29809;52.432;4.780;2022-11-14T16:15:15;9.65;;;8.60;;
44145;SDS011;29809;52.432;4.780;2022-11-14T16:17:42;11.50;;;8.88;;
44145;SDS011;29809;52.432;4.780;2022-11-14T16:20:21;10.02;;;8.75;;
44145;SDS011;29809;52.432;4.780;2022-11-14T16:22:47;9.63;;;8.80;;
44145;SDS011;29809;52.432;4.780;2022-11-14T16:25:16;10.48;;;9.48;;
44145;SDS011;29809;52.432;4.780;2022-11-14T16:27:42;9.38;;;8.48;;
44145;SDS011;29809;52.432;4.780;2022-11-14T16:30:09;10.35;;;9.35;;
44145;SDS011;29809;52.432;4.780;2022-11-14T16:32:34;10.13;;;9.13;;
44145;SDS011;29809;52.432;4.780;2022-11-14T16:35:00;10.52;;;9.52;;